<?xml version="1.0" encoding="UTF-8" standalone="no" ?>
<gpx xmlns="http://www.topografix.com/GPX/1/1" xmlns:xsi="http://www.w3.org/2001/XMLSchema-instance" xsi:schemaLocation="http://www.topografix.com/GPX/1/1 http://www.topografix.com/GPX/1/1/gpx.xsd" version="1.1" creator="VisuGPX - https://www.visugpx.com">
  <metadata>
    <name>Meyrannes - Montagnac - Reboul</name>
    <desc><![CDATA[Boucle des curiosités autour du sommet des Subes.]]></desc>
  </metadata>
  <wpt lat="44.27132" lon="4.16993">
    <ele>140.69</ele>
    <name><![CDATA[0000275]]></name>
    <desc><![CDATA[]]></desc>
    <type><![CDATA[Point de départ]]></type>
  </wpt>
  <wpt lat="44.27044" lon="4.16984">
    <ele>138.66</ele>
    <name><![CDATA[0000276]]></name>
    <desc><![CDATA[<br /><h3>Nom: Segment 1</h3><br /><p>Temps de départ: 06/23/2015 08:26</p><p>Temps d'arrivée: 06/23/2015 12:22</p><p>Distance: 10,8km (03:55)</p><p>Temps déplacement: 02:36</p><p>Vitesse moyenne: 2,8km/h</p><p>Vitesse moyenne: 4,1km/h</p><p>Vitess Max.: 7,5km/h</p><p>Altitude minimale: 138m</p><p>Altitude maximale: 430m</p><p>Vitesse d'élévation: 292,5m/h</p><p>Vitesse de descente: -314,3m/h</p><p>Gain Altitude: 555m</p><p>Perte Altitude: -558m</p><p>Temps d'élévation: 01:53</p><p>Temps de descente: 01:46</p>]]></desc>
    <type><![CDATA[Point d'arrivée]]></type>
  </wpt>
  <trk>
    <name><![CDATA[Meyrannes]]></name>
    <desc><![CDATA[<h1>OruxMaps</h1><br /><hr align="center" width="480" style="height: 2px; width: 517px"/><h2>Nom: Meyrannes</h2><br /><p>Temps de départ: 06/23/2015 08:26</p><p>Temps d'arrivée: 06/23/2015 12:22</p><p>Distance: 10,8km (03:55)</p><p>Temps déplacement: 02:36</p><p>Vitesse moyenne: 2,8km/h</p><p>Vitesse moyenne: 4,1km/h</p><p>Vitess Max.: 7,5km/h</p><p>Altitude minimale: 138m</p><p>Altitude maximale: 430m</p><p>Vitesse d'élévation: 292,5m/h</p><p>Vitesse de descente: -314,3m/h</p><p>Gain Altitude: 555m</p><p>Perte Altitude: -558m</p><p>Temps d'élévation: 01:53</p><p>Temps de descente: 01:46</p><hr align="center" width="480" style="height: 2px; width: 517px"/>]]></desc>
    <trkseg>
      <trkpt lat="44.27132" lon="4.16993">
        <ele>140.69</ele>
        <time>2015-06-23T06:26:52Z</time>
      </trkpt>
      <trkpt lat="44.27122" lon="4.16972">
        <ele>140.48</ele>
        <time>2015-06-23T06:27:19Z</time>
      </trkpt>
      <trkpt lat="44.27119" lon="4.16947">
        <ele>141.7</ele>
        <time>2015-06-23T06:27:31Z</time>
      </trkpt>
      <trkpt lat="44.27112" lon="4.16922">
        <ele>139.48</ele>
        <time>2015-06-23T06:27:47Z</time>
      </trkpt>
      <trkpt lat="44.2711" lon="4.16896">
        <ele>144.26</ele>
        <time>2015-06-23T06:28:02Z</time>
      </trkpt>
      <trkpt lat="44.27107" lon="4.16871">
        <ele>145.05</ele>
        <time>2015-06-23T06:28:15Z</time>
      </trkpt>
      <trkpt lat="44.27102" lon="4.16845">
        <ele>149.57</ele>
        <time>2015-06-23T06:28:32Z</time>
      </trkpt>
      <trkpt lat="44.27097" lon="4.16819">
        <ele>152.57</ele>
        <time>2015-06-23T06:28:44Z</time>
      </trkpt>
      <trkpt lat="44.27091" lon="4.16795">
        <ele>153.7</ele>
        <time>2015-06-23T06:28:57Z</time>
      </trkpt>
      <trkpt lat="44.27087" lon="4.1677">
        <ele>152.97</ele>
        <time>2015-06-23T06:29:11Z</time>
      </trkpt>
      <trkpt lat="44.271" lon="4.16752">
        <ele>153.23</ele>
        <time>2015-06-23T06:29:24Z</time>
      </trkpt>
      <trkpt lat="44.2711" lon="4.16731">
        <ele>146.75</ele>
        <time>2015-06-23T06:29:38Z</time>
      </trkpt>
      <trkpt lat="44.27126" lon="4.16716">
        <ele>149.57</ele>
        <time>2015-06-23T06:29:52Z</time>
      </trkpt>
      <trkpt lat="44.27139" lon="4.16698">
        <ele>147.15</ele>
        <time>2015-06-23T06:30:11Z</time>
      </trkpt>
      <trkpt lat="44.27157" lon="4.1669">
        <ele>153</ele>
        <time>2015-06-23T06:30:25Z</time>
      </trkpt>
      <trkpt lat="44.27168" lon="4.16669">
        <ele>152.23</ele>
        <time>2015-06-23T06:30:49Z</time>
      </trkpt>
      <trkpt lat="44.2718" lon="4.16649">
        <ele>151.76</ele>
        <time>2015-06-23T06:31:02Z</time>
      </trkpt>
      <trkpt lat="44.27198" lon="4.16644">
        <ele>155.23</ele>
        <time>2015-06-23T06:31:25Z</time>
      </trkpt>
      <trkpt lat="44.27213" lon="4.16657">
        <ele>158.29</ele>
        <time>2015-06-23T06:32:16Z</time>
      </trkpt>
      <trkpt lat="44.27229" lon="4.16669">
        <ele>164.83</ele>
        <time>2015-06-23T06:32:45Z</time>
      </trkpt>
      <trkpt lat="44.27247" lon="4.16662">
        <ele>163.78</ele>
        <time>2015-06-23T06:33:17Z</time>
      </trkpt>
      <trkpt lat="44.27257" lon="4.1664">
        <ele>176.7</ele>
        <time>2015-06-23T06:33:50Z</time>
      </trkpt>
      <trkpt lat="44.27274" lon="4.1663">
        <ele>176.39</ele>
        <time>2015-06-23T06:34:11Z</time>
      </trkpt>
      <trkpt lat="44.2729" lon="4.16617">
        <ele>176.05</ele>
        <time>2015-06-23T06:34:48Z</time>
      </trkpt>
      <trkpt lat="44.27306" lon="4.16605">
        <ele>182.69</ele>
        <time>2015-06-23T06:35:25Z</time>
      </trkpt>
      <trkpt lat="44.27324" lon="4.16596">
        <ele>182.09</ele>
        <time>2015-06-23T06:35:37Z</time>
      </trkpt>
      <trkpt lat="44.27342" lon="4.16588">
        <ele>182.9</ele>
        <time>2015-06-23T06:35:56Z</time>
      </trkpt>
      <trkpt lat="44.2736" lon="4.16585">
        <ele>191.12</ele>
        <time>2015-06-23T06:36:27Z</time>
      </trkpt>
      <trkpt lat="44.27378" lon="4.16588">
        <ele>187.24</ele>
        <time>2015-06-23T06:36:48Z</time>
      </trkpt>
      <trkpt lat="44.27397" lon="4.16588">
        <ele>183.64</ele>
        <time>2015-06-23T06:37:12Z</time>
      </trkpt>
      <trkpt lat="44.27415" lon="4.16583">
        <ele>181.57</ele>
        <time>2015-06-23T06:37:35Z</time>
      </trkpt>
      <trkpt lat="44.27434" lon="4.1658">
        <ele>186.56</ele>
        <time>2015-06-23T06:39:02Z</time>
      </trkpt>
      <trkpt lat="44.27452" lon="4.16578">
        <ele>200.43</ele>
        <time>2015-06-23T06:39:47Z</time>
      </trkpt>
      <trkpt lat="44.2747" lon="4.16575">
        <ele>201.83</ele>
        <time>2015-06-23T06:40:49Z</time>
      </trkpt>
      <trkpt lat="44.27488" lon="4.1657">
        <ele>202.35</ele>
        <time>2015-06-23T06:41:04Z</time>
      </trkpt>
      <trkpt lat="44.27506" lon="4.16569">
        <ele>206.95</ele>
        <time>2015-06-23T06:41:24Z</time>
      </trkpt>
      <trkpt lat="44.27523" lon="4.16561">
        <ele>211.41</ele>
        <time>2015-06-23T06:41:51Z</time>
      </trkpt>
      <trkpt lat="44.27542" lon="4.1656">
        <ele>209.31</ele>
        <time>2015-06-23T06:42:12Z</time>
      </trkpt>
      <trkpt lat="44.27561" lon="4.1656">
        <ele>207.57</ele>
        <time>2015-06-23T06:42:34Z</time>
      </trkpt>
      <trkpt lat="44.27594" lon="4.16543">
        <ele>206.21</ele>
        <time>2015-06-23T06:43:00Z</time>
      </trkpt>
      <trkpt lat="44.27593" lon="4.16568">
        <ele>208.65</ele>
        <time>2015-06-23T06:43:15Z</time>
      </trkpt>
      <trkpt lat="44.27611" lon="4.16573">
        <ele>215.63</ele>
        <time>2015-06-23T06:43:40Z</time>
      </trkpt>
      <trkpt lat="44.27627" lon="4.16582">
        <ele>212.49</ele>
        <time>2015-06-23T06:44:14Z</time>
      </trkpt>
      <trkpt lat="44.27646" lon="4.16579">
        <ele>217.36</ele>
        <time>2015-06-23T06:44:31Z</time>
      </trkpt>
      <trkpt lat="44.27662" lon="4.16592">
        <ele>217.41</ele>
        <time>2015-06-23T06:44:53Z</time>
      </trkpt>
      <trkpt lat="44.27679" lon="4.16602">
        <ele>212.19</ele>
        <time>2015-06-23T06:45:14Z</time>
      </trkpt>
      <trkpt lat="44.27683" lon="4.16626">
        <ele>231.44</ele>
        <time>2015-06-23T06:47:00Z</time>
      </trkpt>
      <trkpt lat="44.27695" lon="4.16646">
        <ele>235.63</ele>
        <time>2015-06-23T06:47:24Z</time>
      </trkpt>
      <trkpt lat="44.27705" lon="4.16666">
        <ele>236.24</ele>
        <time>2015-06-23T06:48:23Z</time>
      </trkpt>
      <trkpt lat="44.27689" lon="4.16679">
        <ele>235.22</ele>
        <time>2015-06-23T06:50:10Z</time>
      </trkpt>
      <trkpt lat="44.2767" lon="4.16681">
        <ele>258.52</ele>
        <time>2015-06-23T06:51:00Z</time>
      </trkpt>
      <trkpt lat="44.27651" lon="4.16677">
        <ele>261.65</ele>
        <time>2015-06-23T06:51:11Z</time>
      </trkpt>
      <trkpt lat="44.27632" lon="4.16674">
        <ele>258.44</ele>
        <time>2015-06-23T06:52:47Z</time>
      </trkpt>
      <trkpt lat="44.27616" lon="4.16688">
        <ele>264</ele>
        <time>2015-06-23T06:53:03Z</time>
      </trkpt>
      <trkpt lat="44.27612" lon="4.16713">
        <ele>258</ele>
        <time>2015-06-23T06:54:17Z</time>
      </trkpt>
      <trkpt lat="44.27616" lon="4.16739">
        <ele>271.81</ele>
        <time>2015-06-23T06:55:39Z</time>
      </trkpt>
      <trkpt lat="44.27626" lon="4.16761">
        <ele>271.17</ele>
        <time>2015-06-23T06:56:10Z</time>
      </trkpt>
      <trkpt lat="44.27643" lon="4.16769">
        <ele>266.66</ele>
        <time>2015-06-23T06:57:01Z</time>
      </trkpt>
      <trkpt lat="44.27658" lon="4.16785">
        <ele>273.3</ele>
        <time>2015-06-23T07:03:07Z</time>
      </trkpt>
      <trkpt lat="44.27669" lon="4.16805">
        <ele>271.77</ele>
        <time>2015-06-23T07:03:41Z</time>
      </trkpt>
      <trkpt lat="44.27684" lon="4.1682">
        <ele>275.63</ele>
        <time>2015-06-23T07:05:10Z</time>
      </trkpt>
      <trkpt lat="44.27692" lon="4.16843">
        <ele>276.43</ele>
        <time>2015-06-23T07:05:48Z</time>
      </trkpt>
      <trkpt lat="44.27706" lon="4.16858">
        <ele>278.22</ele>
        <time>2015-06-23T07:06:18Z</time>
      </trkpt>
      <trkpt lat="44.27722" lon="4.1687">
        <ele>283.79</ele>
        <time>2015-06-23T07:06:46Z</time>
      </trkpt>
      <trkpt lat="44.27739" lon="4.16883">
        <ele>283.14</ele>
        <time>2015-06-23T07:07:38Z</time>
      </trkpt>
      <trkpt lat="44.27757" lon="4.16886">
        <ele>285.57</ele>
        <time>2015-06-23T07:08:19Z</time>
      </trkpt>
      <trkpt lat="44.27777" lon="4.16887">
        <ele>284.69</ele>
        <time>2015-06-23T07:08:55Z</time>
      </trkpt>
      <trkpt lat="44.27796" lon="4.16884">
        <ele>292.75</ele>
        <time>2015-06-23T07:09:11Z</time>
      </trkpt>
      <trkpt lat="44.27814" lon="4.16889">
        <ele>288.77</ele>
        <time>2015-06-23T07:09:31Z</time>
      </trkpt>
      <trkpt lat="44.27811" lon="4.16864">
        <ele>292.23</ele>
        <time>2015-06-23T07:10:43Z</time>
      </trkpt>
      <trkpt lat="44.27801" lon="4.16842">
        <ele>291.1</ele>
        <time>2015-06-23T07:11:14Z</time>
      </trkpt>
      <trkpt lat="44.27805" lon="4.16818">
        <ele>283.22</ele>
        <time>2015-06-23T07:11:48Z</time>
      </trkpt>
      <trkpt lat="44.2782" lon="4.16803">
        <ele>285.49</ele>
        <time>2015-06-23T07:12:07Z</time>
      </trkpt>
      <trkpt lat="44.27828" lon="4.16781">
        <ele>284.78</ele>
        <time>2015-06-23T07:12:36Z</time>
      </trkpt>
      <trkpt lat="44.27842" lon="4.16764">
        <ele>279.19</ele>
        <time>2015-06-23T07:13:51Z</time>
      </trkpt>
      <trkpt lat="44.27851" lon="4.16741">
        <ele>264.72</ele>
        <time>2015-06-23T07:14:29Z</time>
      </trkpt>
      <trkpt lat="44.27855" lon="4.16716">
        <ele>265.13</ele>
        <time>2015-06-23T07:15:14Z</time>
      </trkpt>
      <trkpt lat="44.2787" lon="4.167">
        <ele>263.2</ele>
        <time>2015-06-23T07:16:05Z</time>
      </trkpt>
      <trkpt lat="44.27883" lon="4.16683">
        <ele>261.43</ele>
        <time>2015-06-23T07:16:38Z</time>
      </trkpt>
      <trkpt lat="44.27897" lon="4.16667">
        <ele>251.29</ele>
        <time>2015-06-23T07:18:20Z</time>
      </trkpt>
      <trkpt lat="44.27914" lon="4.16681">
        <ele>248.16</ele>
        <time>2015-06-23T07:19:21Z</time>
      </trkpt>
      <trkpt lat="44.27933" lon="4.16683">
        <ele>249.32</ele>
        <time>2015-06-23T07:19:34Z</time>
      </trkpt>
      <trkpt lat="44.27946" lon="4.16701">
        <ele>247.33</ele>
        <time>2015-06-23T07:20:13Z</time>
      </trkpt>
      <trkpt lat="44.2796" lon="4.16717">
        <ele>248.58</ele>
        <time>2015-06-23T07:20:43Z</time>
      </trkpt>
      <trkpt lat="44.27978" lon="4.16726">
        <ele>258.64</ele>
        <time>2015-06-23T07:20:58Z</time>
      </trkpt>
      <trkpt lat="44.27989" lon="4.16746">
        <ele>247.89</ele>
        <time>2015-06-23T07:21:16Z</time>
      </trkpt>
      <trkpt lat="44.28006" lon="4.16756">
        <ele>248.69</ele>
        <time>2015-06-23T07:22:33Z</time>
      </trkpt>
      <trkpt lat="44.28021" lon="4.1677">
        <ele>240.19</ele>
        <time>2015-06-23T07:24:01Z</time>
      </trkpt>
      <trkpt lat="44.28039" lon="4.16778">
        <ele>239.67</ele>
        <time>2015-06-23T07:24:43Z</time>
      </trkpt>
      <trkpt lat="44.28057" lon="4.16784">
        <ele>241.87</ele>
        <time>2015-06-23T07:25:13Z</time>
      </trkpt>
      <trkpt lat="44.28075" lon="4.16781">
        <ele>241.15</ele>
        <time>2015-06-23T07:25:33Z</time>
      </trkpt>
      <trkpt lat="44.28094" lon="4.16779">
        <ele>240.76</ele>
        <time>2015-06-23T07:25:54Z</time>
      </trkpt>
      <trkpt lat="44.28112" lon="4.16772">
        <ele>245.81</ele>
        <time>2015-06-23T07:26:48Z</time>
      </trkpt>
      <trkpt lat="44.2813" lon="4.16777">
        <ele>245.69</ele>
        <time>2015-06-23T07:27:09Z</time>
      </trkpt>
      <trkpt lat="44.28149" lon="4.16777">
        <ele>238.36</ele>
        <time>2015-06-23T07:27:33Z</time>
      </trkpt>
      <trkpt lat="44.28164" lon="4.16791">
        <ele>237.31</ele>
        <time>2015-06-23T07:27:50Z</time>
      </trkpt>
      <trkpt lat="44.28175" lon="4.16818">
        <ele>226.85</ele>
        <time>2015-06-23T07:28:27Z</time>
      </trkpt>
      <trkpt lat="44.28188" lon="4.16837">
        <ele>235.96</ele>
        <time>2015-06-23T07:28:44Z</time>
      </trkpt>
      <trkpt lat="44.28206" lon="4.16844">
        <ele>234.58</ele>
        <time>2015-06-23T07:29:21Z</time>
      </trkpt>
      <trkpt lat="44.28224" lon="4.16849">
        <ele>234.83</ele>
        <time>2015-06-23T07:29:41Z</time>
      </trkpt>
      <trkpt lat="44.28242" lon="4.16855">
        <ele>236.82</ele>
        <time>2015-06-23T07:30:03Z</time>
      </trkpt>
      <trkpt lat="44.28259" lon="4.16865">
        <ele>235.58</ele>
        <time>2015-06-23T07:30:21Z</time>
      </trkpt>
      <trkpt lat="44.28275" lon="4.16877">
        <ele>231.18</ele>
        <time>2015-06-23T07:30:45Z</time>
      </trkpt>
      <trkpt lat="44.2829" lon="4.16893">
        <ele>230.19</ele>
        <time>2015-06-23T07:31:30Z</time>
      </trkpt>
      <trkpt lat="44.28308" lon="4.16901">
        <ele>229.76</ele>
        <time>2015-06-23T07:31:53Z</time>
      </trkpt>
      <trkpt lat="44.28325" lon="4.1691">
        <ele>228.84</ele>
        <time>2015-06-23T07:32:06Z</time>
      </trkpt>
      <trkpt lat="44.28341" lon="4.16921">
        <ele>224.34</ele>
        <time>2015-06-23T07:32:46Z</time>
      </trkpt>
      <trkpt lat="44.2836" lon="4.16921">
        <ele>224.96</ele>
        <time>2015-06-23T07:33:12Z</time>
      </trkpt>
      <trkpt lat="44.28378" lon="4.16915">
        <ele>230.35</ele>
        <time>2015-06-23T07:33:32Z</time>
      </trkpt>
      <trkpt lat="44.28396" lon="4.16912">
        <ele>223.56</ele>
        <time>2015-06-23T07:34:12Z</time>
      </trkpt>
      <trkpt lat="44.28415" lon="4.16914">
        <ele>223.12</ele>
        <time>2015-06-23T07:34:32Z</time>
      </trkpt>
      <trkpt lat="44.28432" lon="4.16906">
        <ele>228.44</ele>
        <time>2015-06-23T07:35:07Z</time>
      </trkpt>
      <trkpt lat="44.28449" lon="4.16896">
        <ele>228.67</ele>
        <time>2015-06-23T07:35:20Z</time>
      </trkpt>
      <trkpt lat="44.28467" lon="4.16897">
        <ele>226.7</ele>
        <time>2015-06-23T07:35:37Z</time>
      </trkpt>
      <trkpt lat="44.28485" lon="4.16903">
        <ele>223.62</ele>
        <time>2015-06-23T07:35:57Z</time>
      </trkpt>
      <trkpt lat="44.28504" lon="4.16906">
        <ele>222.59</ele>
        <time>2015-06-23T07:36:42Z</time>
      </trkpt>
      <trkpt lat="44.28521" lon="4.16915">
        <ele>224.15</ele>
        <time>2015-06-23T07:36:59Z</time>
      </trkpt>
      <trkpt lat="44.28539" lon="4.16917">
        <ele>226.19</ele>
        <time>2015-06-23T07:40:12Z</time>
      </trkpt>
      <trkpt lat="44.28526" lon="4.16899">
        <ele>233.83</ele>
        <time>2015-06-23T07:41:40Z</time>
      </trkpt>
      <trkpt lat="44.28525" lon="4.16874">
        <ele>230.91</ele>
        <time>2015-06-23T07:42:27Z</time>
      </trkpt>
      <trkpt lat="44.28534" lon="4.16851">
        <ele>234.93</ele>
        <time>2015-06-23T07:42:48Z</time>
      </trkpt>
      <trkpt lat="44.28536" lon="4.16826">
        <ele>234.71</ele>
        <time>2015-06-23T07:43:14Z</time>
      </trkpt>
      <trkpt lat="44.28529" lon="4.16801">
        <ele>236.71</ele>
        <time>2015-06-23T07:44:14Z</time>
      </trkpt>
      <trkpt lat="44.28523" lon="4.16777">
        <ele>242.7</ele>
        <time>2015-06-23T07:44:28Z</time>
      </trkpt>
      <trkpt lat="44.28517" lon="4.16754">
        <ele>238.99</ele>
        <time>2015-06-23T07:45:26Z</time>
      </trkpt>
      <trkpt lat="44.28507" lon="4.16732">
        <ele>243.19</ele>
        <time>2015-06-23T07:46:13Z</time>
      </trkpt>
      <trkpt lat="44.28502" lon="4.16707">
        <ele>246.75</ele>
        <time>2015-06-23T07:46:28Z</time>
      </trkpt>
      <trkpt lat="44.28496" lon="4.16683">
        <ele>256.27</ele>
        <time>2015-06-23T07:46:43Z</time>
      </trkpt>
      <trkpt lat="44.28491" lon="4.16657">
        <ele>259.21</ele>
        <time>2015-06-23T07:47:32Z</time>
      </trkpt>
      <trkpt lat="44.28483" lon="4.16634">
        <ele>261.57</ele>
        <time>2015-06-23T07:47:47Z</time>
      </trkpt>
      <trkpt lat="44.28481" lon="4.16609">
        <ele>263.97</ele>
        <time>2015-06-23T07:48:31Z</time>
      </trkpt>
      <trkpt lat="44.28479" lon="4.16584">
        <ele>264.34</ele>
        <time>2015-06-23T07:48:58Z</time>
      </trkpt>
      <trkpt lat="44.28472" lon="4.1656">
        <ele>274.57</ele>
        <time>2015-06-23T07:49:24Z</time>
      </trkpt>
      <trkpt lat="44.28476" lon="4.16536">
        <ele>272.47</ele>
        <time>2015-06-23T07:49:41Z</time>
      </trkpt>
      <trkpt lat="44.28488" lon="4.16516">
        <ele>279.56</ele>
        <time>2015-06-23T07:50:20Z</time>
      </trkpt>
      <trkpt lat="44.28502" lon="4.16499">
        <ele>279.87</ele>
        <time>2015-06-23T07:50:41Z</time>
      </trkpt>
      <trkpt lat="44.28495" lon="4.16474">
        <ele>288.55</ele>
        <time>2015-06-23T07:51:06Z</time>
      </trkpt>
      <trkpt lat="44.28504" lon="4.16451">
        <ele>294.72</ele>
        <time>2015-06-23T07:51:38Z</time>
      </trkpt>
      <trkpt lat="44.28513" lon="4.16428">
        <ele>299.76</ele>
        <time>2015-06-23T07:51:57Z</time>
      </trkpt>
      <trkpt lat="44.2852" lon="4.16404">
        <ele>296.93</ele>
        <time>2015-06-23T07:54:11Z</time>
      </trkpt>
      <trkpt lat="44.28516" lon="4.1638">
        <ele>297.2</ele>
        <time>2015-06-23T07:54:34Z</time>
      </trkpt>
      <trkpt lat="44.28515" lon="4.16354">
        <ele>299.8</ele>
        <time>2015-06-23T07:54:47Z</time>
      </trkpt>
      <trkpt lat="44.28515" lon="4.16327">
        <ele>299.32</ele>
        <time>2015-06-23T07:55:04Z</time>
      </trkpt>
      <trkpt lat="44.28511" lon="4.16302">
        <ele>300.69</ele>
        <time>2015-06-23T07:55:22Z</time>
      </trkpt>
      <trkpt lat="44.28505" lon="4.16277">
        <ele>301.75</ele>
        <time>2015-06-23T07:55:37Z</time>
      </trkpt>
      <trkpt lat="44.28502" lon="4.16251">
        <ele>301.45</ele>
        <time>2015-06-23T07:55:53Z</time>
      </trkpt>
      <trkpt lat="44.285" lon="4.16226">
        <ele>300.44</ele>
        <time>2015-06-23T07:56:10Z</time>
      </trkpt>
      <trkpt lat="44.28495" lon="4.16201">
        <ele>302.44</ele>
        <time>2015-06-23T07:56:27Z</time>
      </trkpt>
      <trkpt lat="44.2848" lon="4.16184">
        <ele>301.94</ele>
        <time>2015-06-23T07:56:48Z</time>
      </trkpt>
      <trkpt lat="44.28463" lon="4.16176">
        <ele>302.69</ele>
        <time>2015-06-23T07:57:23Z</time>
      </trkpt>
      <trkpt lat="44.28446" lon="4.16187">
        <ele>300.82</ele>
        <time>2015-06-23T07:57:39Z</time>
      </trkpt>
      <trkpt lat="44.28428" lon="4.16179">
        <ele>302.7</ele>
        <time>2015-06-23T07:58:11Z</time>
      </trkpt>
      <trkpt lat="44.28412" lon="4.16165">
        <ele>302.67</ele>
        <time>2015-06-23T07:58:27Z</time>
      </trkpt>
      <trkpt lat="44.28395" lon="4.16156">
        <ele>310.44</ele>
        <time>2015-06-23T07:58:55Z</time>
      </trkpt>
      <trkpt lat="44.28376" lon="4.16148">
        <ele>311.75</ele>
        <time>2015-06-23T07:59:09Z</time>
      </trkpt>
      <trkpt lat="44.28358" lon="4.16145">
        <ele>308.31</ele>
        <time>2015-06-23T07:59:24Z</time>
      </trkpt>
      <trkpt lat="44.28341" lon="4.16138">
        <ele>303.71</ele>
        <time>2015-06-23T07:59:40Z</time>
      </trkpt>
      <trkpt lat="44.28323" lon="4.1614">
        <ele>313.49</ele>
        <time>2015-06-23T08:00:04Z</time>
      </trkpt>
      <trkpt lat="44.28303" lon="4.16138">
        <ele>316.62</ele>
        <time>2015-06-23T08:00:39Z</time>
      </trkpt>
      <trkpt lat="44.2832" lon="4.16146">
        <ele>308.43</ele>
        <time>2015-06-23T08:01:17Z</time>
      </trkpt>
      <trkpt lat="44.28339" lon="4.16143">
        <ele>308.61</ele>
        <time>2015-06-23T08:01:57Z</time>
      </trkpt>
      <trkpt lat="44.28358" lon="4.1614">
        <ele>298.13</ele>
        <time>2015-06-23T08:02:15Z</time>
      </trkpt>
      <trkpt lat="44.28376" lon="4.16145">
        <ele>295.93</ele>
        <time>2015-06-23T08:02:36Z</time>
      </trkpt>
      <trkpt lat="44.28393" lon="4.16158">
        <ele>297.14</ele>
        <time>2015-06-23T08:03:04Z</time>
      </trkpt>
      <trkpt lat="44.28411" lon="4.16164">
        <ele>294.65</ele>
        <time>2015-06-23T08:03:19Z</time>
      </trkpt>
      <trkpt lat="44.28428" lon="4.16172">
        <ele>288.62</ele>
        <time>2015-06-23T08:03:40Z</time>
      </trkpt>
      <trkpt lat="44.28446" lon="4.16176">
        <ele>291.93</ele>
        <time>2015-06-23T08:04:41Z</time>
      </trkpt>
      <trkpt lat="44.28465" lon="4.16173">
        <ele>293.29</ele>
        <time>2015-06-23T08:05:10Z</time>
      </trkpt>
      <trkpt lat="44.28474" lon="4.16151">
        <ele>302.38</ele>
        <time>2015-06-23T08:06:30Z</time>
      </trkpt>
      <trkpt lat="44.28475" lon="4.16126">
        <ele>299.56</ele>
        <time>2015-06-23T08:07:09Z</time>
      </trkpt>
      <trkpt lat="44.28476" lon="4.161">
        <ele>297.21</ele>
        <time>2015-06-23T08:07:25Z</time>
      </trkpt>
      <trkpt lat="44.28475" lon="4.16074">
        <ele>302.53</ele>
        <time>2015-06-23T08:07:43Z</time>
      </trkpt>
      <trkpt lat="44.28478" lon="4.16049">
        <ele>301.83</ele>
        <time>2015-06-23T08:07:57Z</time>
      </trkpt>
      <trkpt lat="44.2848" lon="4.16023">
        <ele>301.96</ele>
        <time>2015-06-23T08:08:13Z</time>
      </trkpt>
      <trkpt lat="44.28483" lon="4.15997">
        <ele>305.85</ele>
        <time>2015-06-23T08:08:27Z</time>
      </trkpt>
      <trkpt lat="44.2848" lon="4.15971">
        <ele>306.47</ele>
        <time>2015-06-23T08:08:42Z</time>
      </trkpt>
      <trkpt lat="44.28479" lon="4.15944">
        <ele>307.09</ele>
        <time>2015-06-23T08:08:59Z</time>
      </trkpt>
      <trkpt lat="44.28473" lon="4.1592">
        <ele>309.97</ele>
        <time>2015-06-23T08:09:14Z</time>
      </trkpt>
      <trkpt lat="44.28463" lon="4.15899">
        <ele>309.38</ele>
        <time>2015-06-23T08:09:35Z</time>
      </trkpt>
      <trkpt lat="44.28452" lon="4.15878">
        <ele>307.69</ele>
        <time>2015-06-23T08:09:51Z</time>
      </trkpt>
      <trkpt lat="44.28443" lon="4.15856">
        <ele>304.53</ele>
        <time>2015-06-23T08:10:08Z</time>
      </trkpt>
      <trkpt lat="44.28431" lon="4.15835">
        <ele>308.19</ele>
        <time>2015-06-23T08:10:22Z</time>
      </trkpt>
      <trkpt lat="44.28429" lon="4.1581">
        <ele>306.95</ele>
        <time>2015-06-23T08:10:37Z</time>
      </trkpt>
      <trkpt lat="44.28431" lon="4.15785">
        <ele>307.11</ele>
        <time>2015-06-23T08:10:58Z</time>
      </trkpt>
      <trkpt lat="44.28432" lon="4.15757">
        <ele>312.3</ele>
        <time>2015-06-23T08:11:13Z</time>
      </trkpt>
      <trkpt lat="44.28433" lon="4.15732">
        <ele>308.23</ele>
        <time>2015-06-23T08:11:39Z</time>
      </trkpt>
      <trkpt lat="44.28435" lon="4.15706">
        <ele>308.38</ele>
        <time>2015-06-23T08:11:54Z</time>
      </trkpt>
      <trkpt lat="44.28441" lon="4.15682">
        <ele>308.65</ele>
        <time>2015-06-23T08:12:07Z</time>
      </trkpt>
      <trkpt lat="44.28448" lon="4.15659">
        <ele>311.17</ele>
        <time>2015-06-23T08:12:19Z</time>
      </trkpt>
      <trkpt lat="44.28456" lon="4.15636">
        <ele>310.93</ele>
        <time>2015-06-23T08:12:34Z</time>
      </trkpt>
      <trkpt lat="44.28461" lon="4.1561">
        <ele>311.1</ele>
        <time>2015-06-23T08:12:58Z</time>
      </trkpt>
      <trkpt lat="44.28465" lon="4.15585">
        <ele>311.91</ele>
        <time>2015-06-23T08:13:15Z</time>
      </trkpt>
      <trkpt lat="44.2847" lon="4.15559">
        <ele>314.72</ele>
        <time>2015-06-23T08:13:31Z</time>
      </trkpt>
      <trkpt lat="44.28479" lon="4.15537">
        <ele>315.96</ele>
        <time>2015-06-23T08:13:46Z</time>
      </trkpt>
      <trkpt lat="44.28488" lon="4.15514">
        <ele>316.5</ele>
        <time>2015-06-23T08:14:04Z</time>
      </trkpt>
      <trkpt lat="44.28501" lon="4.15496">
        <ele>320.58</ele>
        <time>2015-06-23T08:14:50Z</time>
      </trkpt>
      <trkpt lat="44.28518" lon="4.15485">
        <ele>322.32</ele>
        <time>2015-06-23T08:15:08Z</time>
      </trkpt>
      <trkpt lat="44.28526" lon="4.15461">
        <ele>328.27</ele>
        <time>2015-06-23T08:15:37Z</time>
      </trkpt>
      <trkpt lat="44.28539" lon="4.15443">
        <ele>329.74</ele>
        <time>2015-06-23T08:15:56Z</time>
      </trkpt>
      <trkpt lat="44.2855" lon="4.15423">
        <ele>332.75</ele>
        <time>2015-06-23T08:16:13Z</time>
      </trkpt>
      <trkpt lat="44.28555" lon="4.15398">
        <ele>327.75</ele>
        <time>2015-06-23T08:16:31Z</time>
      </trkpt>
      <trkpt lat="44.28556" lon="4.15372">
        <ele>330.62</ele>
        <time>2015-06-23T08:16:50Z</time>
      </trkpt>
      <trkpt lat="44.28561" lon="4.15348">
        <ele>330.29</ele>
        <time>2015-06-23T08:17:06Z</time>
      </trkpt>
      <trkpt lat="44.28568" lon="4.15323">
        <ele>334.91</ele>
        <time>2015-06-23T08:17:21Z</time>
      </trkpt>
      <trkpt lat="44.28577" lon="4.15302">
        <ele>338.43</ele>
        <time>2015-06-23T08:17:35Z</time>
      </trkpt>
      <trkpt lat="44.28591" lon="4.15283">
        <ele>338.81</ele>
        <time>2015-06-23T08:18:00Z</time>
      </trkpt>
      <trkpt lat="44.286" lon="4.15261">
        <ele>337.93</ele>
        <time>2015-06-23T08:18:14Z</time>
      </trkpt>
      <trkpt lat="44.28611" lon="4.15241">
        <ele>335.7</ele>
        <time>2015-06-23T08:18:29Z</time>
      </trkpt>
      <trkpt lat="44.28619" lon="4.15217">
        <ele>329.9</ele>
        <time>2015-06-23T08:18:45Z</time>
      </trkpt>
      <trkpt lat="44.28627" lon="4.15194">
        <ele>337.11</ele>
        <time>2015-06-23T08:19:15Z</time>
      </trkpt>
      <trkpt lat="44.28634" lon="4.1517">
        <ele>336.23</ele>
        <time>2015-06-23T08:19:33Z</time>
      </trkpt>
      <trkpt lat="44.28644" lon="4.15148">
        <ele>334.29</ele>
        <time>2015-06-23T08:19:49Z</time>
      </trkpt>
      <trkpt lat="44.2866" lon="4.15134">
        <ele>330.24</ele>
        <time>2015-06-23T08:20:07Z</time>
      </trkpt>
      <trkpt lat="44.28664" lon="4.15109">
        <ele>330.11</ele>
        <time>2015-06-23T08:20:21Z</time>
      </trkpt>
      <trkpt lat="44.28652" lon="4.15088">
        <ele>332.18</ele>
        <time>2015-06-23T08:20:35Z</time>
      </trkpt>
      <trkpt lat="44.28641" lon="4.15067">
        <ele>331.93</ele>
        <time>2015-06-23T08:20:51Z</time>
      </trkpt>
      <trkpt lat="44.2863" lon="4.15047">
        <ele>331.85</ele>
        <time>2015-06-23T08:21:07Z</time>
      </trkpt>
      <trkpt lat="44.28631" lon="4.15021">
        <ele>329.71</ele>
        <time>2015-06-23T08:21:25Z</time>
      </trkpt>
      <trkpt lat="44.28629" lon="4.14995">
        <ele>343.78</ele>
        <time>2015-06-23T08:21:43Z</time>
      </trkpt>
      <trkpt lat="44.28638" lon="4.14973">
        <ele>343.29</ele>
        <time>2015-06-23T08:22:00Z</time>
      </trkpt>
      <trkpt lat="44.28656" lon="4.14964">
        <ele>343.44</ele>
        <time>2015-06-23T08:22:14Z</time>
      </trkpt>
      <trkpt lat="44.28671" lon="4.14952">
        <ele>344.81</ele>
        <time>2015-06-23T08:22:36Z</time>
      </trkpt>
      <trkpt lat="44.28689" lon="4.14945">
        <ele>346.19</ele>
        <time>2015-06-23T08:23:05Z</time>
      </trkpt>
      <trkpt lat="44.28687" lon="4.14919">
        <ele>343.45</ele>
        <time>2015-06-23T08:23:30Z</time>
      </trkpt>
      <trkpt lat="44.28683" lon="4.14893">
        <ele>342.31</ele>
        <time>2015-06-23T08:23:45Z</time>
      </trkpt>
      <trkpt lat="44.2868" lon="4.14867">
        <ele>340.29</ele>
        <time>2015-06-23T08:23:58Z</time>
      </trkpt>
      <trkpt lat="44.28682" lon="4.14842">
        <ele>336.57</ele>
        <time>2015-06-23T08:24:17Z</time>
      </trkpt>
      <trkpt lat="44.2869" lon="4.14818">
        <ele>336.38</ele>
        <time>2015-06-23T08:24:32Z</time>
      </trkpt>
      <trkpt lat="44.28699" lon="4.14795">
        <ele>337.27</ele>
        <time>2015-06-23T08:24:54Z</time>
      </trkpt>
      <trkpt lat="44.28708" lon="4.14772">
        <ele>339.28</ele>
        <time>2015-06-23T08:25:10Z</time>
      </trkpt>
      <trkpt lat="44.28721" lon="4.14753">
        <ele>341.34</ele>
        <time>2015-06-23T08:25:30Z</time>
      </trkpt>
      <trkpt lat="44.28735" lon="4.14733">
        <ele>344.4</ele>
        <time>2015-06-23T08:25:45Z</time>
      </trkpt>
      <trkpt lat="44.28733" lon="4.14707">
        <ele>337.44</ele>
        <time>2015-06-23T08:26:42Z</time>
      </trkpt>
      <trkpt lat="44.28729" lon="4.14682">
        <ele>340.78</ele>
        <time>2015-06-23T08:27:05Z</time>
      </trkpt>
      <trkpt lat="44.28728" lon="4.14657">
        <ele>341.39</ele>
        <time>2015-06-23T08:27:28Z</time>
      </trkpt>
      <trkpt lat="44.2873" lon="4.14632">
        <ele>347.29</ele>
        <time>2015-06-23T08:28:01Z</time>
      </trkpt>
      <trkpt lat="44.28738" lon="4.14608">
        <ele>351.3</ele>
        <time>2015-06-23T08:28:34Z</time>
      </trkpt>
      <trkpt lat="44.28755" lon="4.1462">
        <ele>356.85</ele>
        <time>2015-06-23T08:31:05Z</time>
      </trkpt>
      <trkpt lat="44.28761" lon="4.14644">
        <ele>354.63</ele>
        <time>2015-06-23T08:31:22Z</time>
      </trkpt>
      <trkpt lat="44.28773" lon="4.14665">
        <ele>350.04</ele>
        <time>2015-06-23T08:31:43Z</time>
      </trkpt>
      <trkpt lat="44.28783" lon="4.14687">
        <ele>350.6</ele>
        <time>2015-06-23T08:32:01Z</time>
      </trkpt>
      <trkpt lat="44.28792" lon="4.1471">
        <ele>352.18</ele>
        <time>2015-06-23T08:32:18Z</time>
      </trkpt>
      <trkpt lat="44.28801" lon="4.14733">
        <ele>350.36</ele>
        <time>2015-06-23T08:32:38Z</time>
      </trkpt>
      <trkpt lat="44.28799" lon="4.14758">
        <ele>357.98</ele>
        <time>2015-06-23T08:33:02Z</time>
      </trkpt>
      <trkpt lat="44.28789" lon="4.14781">
        <ele>358.22</ele>
        <time>2015-06-23T08:33:21Z</time>
      </trkpt>
      <trkpt lat="44.28781" lon="4.14804">
        <ele>366.6</ele>
        <time>2015-06-23T08:34:48Z</time>
      </trkpt>
      <trkpt lat="44.28772" lon="4.14827">
        <ele>366.71</ele>
        <time>2015-06-23T08:35:06Z</time>
      </trkpt>
      <trkpt lat="44.28759" lon="4.14845">
        <ele>369.16</ele>
        <time>2015-06-23T08:35:24Z</time>
      </trkpt>
      <trkpt lat="44.28757" lon="4.14871">
        <ele>371.35</ele>
        <time>2015-06-23T08:35:59Z</time>
      </trkpt>
      <trkpt lat="44.28753" lon="4.14895">
        <ele>376.64</ele>
        <time>2015-06-23T08:36:46Z</time>
      </trkpt>
      <trkpt lat="44.28754" lon="4.14922">
        <ele>370.32</ele>
        <time>2015-06-23T08:37:14Z</time>
      </trkpt>
      <trkpt lat="44.28754" lon="4.14948">
        <ele>373.07</ele>
        <time>2015-06-23T08:37:29Z</time>
      </trkpt>
      <trkpt lat="44.28752" lon="4.14974">
        <ele>377.08</ele>
        <time>2015-06-23T08:37:48Z</time>
      </trkpt>
      <trkpt lat="44.28749" lon="4.14999">
        <ele>380.4</ele>
        <time>2015-06-23T08:38:06Z</time>
      </trkpt>
      <trkpt lat="44.28745" lon="4.15024">
        <ele>383.15</ele>
        <time>2015-06-23T08:38:24Z</time>
      </trkpt>
      <trkpt lat="44.28748" lon="4.15049">
        <ele>383.16</ele>
        <time>2015-06-23T08:38:40Z</time>
      </trkpt>
      <trkpt lat="44.28747" lon="4.15075">
        <ele>383.71</ele>
        <time>2015-06-23T08:38:57Z</time>
      </trkpt>
      <trkpt lat="44.28757" lon="4.15054">
        <ele>392.32</ele>
        <time>2015-06-23T08:39:55Z</time>
      </trkpt>
      <trkpt lat="44.28764" lon="4.15029">
        <ele>395.66</ele>
        <time>2015-06-23T08:40:25Z</time>
      </trkpt>
      <trkpt lat="44.28775" lon="4.15008">
        <ele>393.48</ele>
        <time>2015-06-23T08:40:42Z</time>
      </trkpt>
      <trkpt lat="44.28784" lon="4.14986">
        <ele>395.98</ele>
        <time>2015-06-23T08:41:00Z</time>
      </trkpt>
      <trkpt lat="44.28794" lon="4.14964">
        <ele>396.41</ele>
        <time>2015-06-23T08:41:19Z</time>
      </trkpt>
      <trkpt lat="44.28804" lon="4.14943">
        <ele>400.74</ele>
        <time>2015-06-23T08:41:37Z</time>
      </trkpt>
      <trkpt lat="44.28816" lon="4.14922">
        <ele>403.63</ele>
        <time>2015-06-23T08:41:55Z</time>
      </trkpt>
      <trkpt lat="44.28828" lon="4.14903">
        <ele>403.59</ele>
        <time>2015-06-23T08:42:10Z</time>
      </trkpt>
      <trkpt lat="44.2884" lon="4.14883">
        <ele>405.7</ele>
        <time>2015-06-23T08:42:29Z</time>
      </trkpt>
      <trkpt lat="44.28856" lon="4.14868">
        <ele>407.96</ele>
        <time>2015-06-23T08:42:53Z</time>
      </trkpt>
      <trkpt lat="44.28871" lon="4.14853">
        <ele>411.57</ele>
        <time>2015-06-23T08:43:12Z</time>
      </trkpt>
      <trkpt lat="44.28887" lon="4.14841">
        <ele>417.6</ele>
        <time>2015-06-23T08:43:33Z</time>
      </trkpt>
      <trkpt lat="44.28902" lon="4.14826">
        <ele>422.84</ele>
        <time>2015-06-23T08:43:53Z</time>
      </trkpt>
      <trkpt lat="44.28918" lon="4.14811">
        <ele>421.24</ele>
        <time>2015-06-23T08:44:08Z</time>
      </trkpt>
      <trkpt lat="44.28931" lon="4.14793">
        <ele>420.07</ele>
        <time>2015-06-23T08:44:24Z</time>
      </trkpt>
      <trkpt lat="44.28941" lon="4.14814">
        <ele>422.7</ele>
        <time>2015-06-23T08:48:50Z</time>
      </trkpt>
      <trkpt lat="44.28944" lon="4.14843">
        <ele>422.53</ele>
        <time>2015-06-23T08:49:20Z</time>
      </trkpt>
      <trkpt lat="44.28952" lon="4.14866">
        <ele>417.41</ele>
        <time>2015-06-23T08:49:34Z</time>
      </trkpt>
      <trkpt lat="44.28961" lon="4.14888">
        <ele>419.1</ele>
        <time>2015-06-23T08:49:53Z</time>
      </trkpt>
      <trkpt lat="44.28973" lon="4.14908">
        <ele>420.39</ele>
        <time>2015-06-23T08:50:06Z</time>
      </trkpt>
      <trkpt lat="44.28984" lon="4.14929">
        <ele>413.27</ele>
        <time>2015-06-23T08:50:25Z</time>
      </trkpt>
      <trkpt lat="44.28995" lon="4.14949">
        <ele>422.79</ele>
        <time>2015-06-23T08:50:44Z</time>
      </trkpt>
      <trkpt lat="44.29004" lon="4.14973">
        <ele>422.45</ele>
        <time>2015-06-23T08:50:59Z</time>
      </trkpt>
      <trkpt lat="44.29021" lon="4.14984">
        <ele>416.53</ele>
        <time>2015-06-23T08:51:10Z</time>
      </trkpt>
      <trkpt lat="44.29027" lon="4.15008">
        <ele>417.58</ele>
        <time>2015-06-23T08:51:28Z</time>
      </trkpt>
      <trkpt lat="44.29037" lon="4.1503">
        <ele>421.95</ele>
        <time>2015-06-23T08:51:47Z</time>
      </trkpt>
      <trkpt lat="44.29047" lon="4.15053">
        <ele>423.06</ele>
        <time>2015-06-23T08:52:08Z</time>
      </trkpt>
      <trkpt lat="44.29058" lon="4.15073">
        <ele>426.31</ele>
        <time>2015-06-23T08:52:28Z</time>
      </trkpt>
      <trkpt lat="44.29065" lon="4.15098">
        <ele>426.69</ele>
        <time>2015-06-23T08:52:49Z</time>
      </trkpt>
      <trkpt lat="44.29079" lon="4.15115">
        <ele>430.17</ele>
        <time>2015-06-23T08:53:03Z</time>
      </trkpt>
      <trkpt lat="44.29089" lon="4.15137">
        <ele>429.59</ele>
        <time>2015-06-23T08:53:24Z</time>
      </trkpt>
      <trkpt lat="44.2909" lon="4.15163">
        <ele>426.32</ele>
        <time>2015-06-23T08:53:46Z</time>
      </trkpt>
      <trkpt lat="44.29094" lon="4.15189">
        <ele>424.6</ele>
        <time>2015-06-23T08:54:19Z</time>
      </trkpt>
      <trkpt lat="44.29106" lon="4.15209">
        <ele>426.05</ele>
        <time>2015-06-23T08:54:37Z</time>
      </trkpt>
      <trkpt lat="44.29118" lon="4.15228">
        <ele>421.53</ele>
        <time>2015-06-23T08:54:59Z</time>
      </trkpt>
      <trkpt lat="44.29131" lon="4.15247">
        <ele>419.31</ele>
        <time>2015-06-23T08:55:20Z</time>
      </trkpt>
      <trkpt lat="44.29143" lon="4.15266">
        <ele>420.2</ele>
        <time>2015-06-23T08:55:33Z</time>
      </trkpt>
      <trkpt lat="44.29152" lon="4.15287">
        <ele>414.54</ele>
        <time>2015-06-23T08:55:52Z</time>
      </trkpt>
      <trkpt lat="44.29157" lon="4.15312">
        <ele>413.04</ele>
        <time>2015-06-23T08:56:13Z</time>
      </trkpt>
      <trkpt lat="44.29163" lon="4.15337">
        <ele>412.75</ele>
        <time>2015-06-23T08:56:47Z</time>
      </trkpt>
      <trkpt lat="44.29178" lon="4.15352">
        <ele>416.03</ele>
        <time>2015-06-23T08:57:23Z</time>
      </trkpt>
      <trkpt lat="44.29194" lon="4.15365">
        <ele>413.09</ele>
        <time>2015-06-23T08:58:48Z</time>
      </trkpt>
      <trkpt lat="44.2921" lon="4.15377">
        <ele>414.04</ele>
        <time>2015-06-23T08:59:21Z</time>
      </trkpt>
      <trkpt lat="44.29226" lon="4.15393">
        <ele>417.9</ele>
        <time>2015-06-23T08:59:34Z</time>
      </trkpt>
      <trkpt lat="44.29244" lon="4.15401">
        <ele>408.75</ele>
        <time>2015-06-23T08:59:48Z</time>
      </trkpt>
      <trkpt lat="44.2923" lon="4.15384">
        <ele>406.15</ele>
        <time>2015-06-23T09:01:38Z</time>
      </trkpt>
      <trkpt lat="44.29215" lon="4.15368">
        <ele>410.95</ele>
        <time>2015-06-23T09:01:53Z</time>
      </trkpt>
      <trkpt lat="44.29201" lon="4.15352">
        <ele>406.89</ele>
        <time>2015-06-23T09:02:11Z</time>
      </trkpt>
      <trkpt lat="44.29183" lon="4.15349">
        <ele>409.94</ele>
        <time>2015-06-23T09:03:36Z</time>
      </trkpt>
      <trkpt lat="44.29168" lon="4.15333">
        <ele>412.36</ele>
        <time>2015-06-23T09:03:51Z</time>
      </trkpt>
      <trkpt lat="44.2915" lon="4.15339">
        <ele>419.74</ele>
        <time>2015-06-23T09:05:36Z</time>
      </trkpt>
      <trkpt lat="44.29133" lon="4.15344">
        <ele>412.27</ele>
        <time>2015-06-23T09:06:03Z</time>
      </trkpt>
      <trkpt lat="44.29118" lon="4.15359">
        <ele>410.72</ele>
        <time>2015-06-23T09:06:20Z</time>
      </trkpt>
      <trkpt lat="44.29113" lon="4.15384">
        <ele>416.73</ele>
        <time>2015-06-23T09:06:36Z</time>
      </trkpt>
      <trkpt lat="44.29124" lon="4.15405">
        <ele>406.64</ele>
        <time>2015-06-23T09:07:10Z</time>
      </trkpt>
      <trkpt lat="44.29135" lon="4.15425">
        <ele>413.47</ele>
        <time>2015-06-23T09:07:29Z</time>
      </trkpt>
      <trkpt lat="44.29142" lon="4.15449">
        <ele>409.3</ele>
        <time>2015-06-23T09:07:47Z</time>
      </trkpt>
      <trkpt lat="44.29148" lon="4.15473">
        <ele>410.69</ele>
        <time>2015-06-23T09:07:58Z</time>
      </trkpt>
      <trkpt lat="44.29158" lon="4.15496">
        <ele>412.36</ele>
        <time>2015-06-23T09:08:14Z</time>
      </trkpt>
      <trkpt lat="44.29176" lon="4.15495">
        <ele>399.78</ele>
        <time>2015-06-23T09:08:45Z</time>
      </trkpt>
      <trkpt lat="44.29165" lon="4.15517">
        <ele>402.6</ele>
        <time>2015-06-23T09:09:00Z</time>
      </trkpt>
      <trkpt lat="44.29149" lon="4.15504">
        <ele>400.69</ele>
        <time>2015-06-23T09:09:23Z</time>
      </trkpt>
      <trkpt lat="44.29167" lon="4.15506">
        <ele>386.21</ele>
        <time>2015-06-23T09:10:57Z</time>
      </trkpt>
      <trkpt lat="44.29176" lon="4.15529">
        <ele>388.11</ele>
        <time>2015-06-23T09:11:13Z</time>
      </trkpt>
      <trkpt lat="44.29186" lon="4.15549">
        <ele>393.65</ele>
        <time>2015-06-23T09:11:51Z</time>
      </trkpt>
      <trkpt lat="44.29194" lon="4.15572">
        <ele>390.98</ele>
        <time>2015-06-23T09:12:15Z</time>
      </trkpt>
      <trkpt lat="44.29198" lon="4.15598">
        <ele>391.07</ele>
        <time>2015-06-23T09:12:29Z</time>
      </trkpt>
      <trkpt lat="44.2919" lon="4.15621">
        <ele>392.25</ele>
        <time>2015-06-23T09:12:48Z</time>
      </trkpt>
      <trkpt lat="44.29171" lon="4.15626">
        <ele>393.04</ele>
        <time>2015-06-23T09:13:03Z</time>
      </trkpt>
      <trkpt lat="44.29155" lon="4.15636">
        <ele>391.19</ele>
        <time>2015-06-23T09:13:31Z</time>
      </trkpt>
      <trkpt lat="44.29145" lon="4.15658">
        <ele>385.72</ele>
        <time>2015-06-23T09:13:52Z</time>
      </trkpt>
      <trkpt lat="44.29143" lon="4.15683">
        <ele>387.92</ele>
        <time>2015-06-23T09:14:06Z</time>
      </trkpt>
      <trkpt lat="44.29142" lon="4.1571">
        <ele>379.3</ele>
        <time>2015-06-23T09:14:24Z</time>
      </trkpt>
      <trkpt lat="44.29141" lon="4.15736">
        <ele>373.52</ele>
        <time>2015-06-23T09:14:41Z</time>
      </trkpt>
      <trkpt lat="44.29143" lon="4.15766">
        <ele>388.85</ele>
        <time>2015-06-23T09:14:57Z</time>
      </trkpt>
      <trkpt lat="44.29148" lon="4.1579">
        <ele>383.44</ele>
        <time>2015-06-23T09:15:17Z</time>
      </trkpt>
      <trkpt lat="44.29151" lon="4.15816">
        <ele>390.67</ele>
        <time>2015-06-23T09:15:34Z</time>
      </trkpt>
      <trkpt lat="44.29149" lon="4.15843">
        <ele>387.77</ele>
        <time>2015-06-23T09:15:54Z</time>
      </trkpt>
      <trkpt lat="44.29145" lon="4.15868">
        <ele>390.33</ele>
        <time>2015-06-23T09:16:11Z</time>
      </trkpt>
      <trkpt lat="44.2914" lon="4.15894">
        <ele>393.28</ele>
        <time>2015-06-23T09:16:30Z</time>
      </trkpt>
      <trkpt lat="44.29132" lon="4.15917">
        <ele>390.66</ele>
        <time>2015-06-23T09:16:47Z</time>
      </trkpt>
      <trkpt lat="44.29121" lon="4.15937">
        <ele>382.42</ele>
        <time>2015-06-23T09:17:02Z</time>
      </trkpt>
      <trkpt lat="44.29103" lon="4.15945">
        <ele>383.99</ele>
        <time>2015-06-23T09:17:34Z</time>
      </trkpt>
      <trkpt lat="44.29086" lon="4.15935">
        <ele>371.88</ele>
        <time>2015-06-23T09:18:09Z</time>
      </trkpt>
      <trkpt lat="44.29068" lon="4.15928">
        <ele>368.97</ele>
        <time>2015-06-23T09:18:18Z</time>
      </trkpt>
      <trkpt lat="44.29051" lon="4.15938">
        <ele>370.07</ele>
        <time>2015-06-23T09:18:35Z</time>
      </trkpt>
      <trkpt lat="44.29038" lon="4.15956">
        <ele>366.77</ele>
        <time>2015-06-23T09:18:52Z</time>
      </trkpt>
      <trkpt lat="44.29035" lon="4.15981">
        <ele>363.49</ele>
        <time>2015-06-23T09:19:07Z</time>
      </trkpt>
      <trkpt lat="44.29029" lon="4.16006">
        <ele>358.05</ele>
        <time>2015-06-23T09:19:26Z</time>
      </trkpt>
      <trkpt lat="44.29029" lon="4.16031">
        <ele>361.14</ele>
        <time>2015-06-23T09:19:45Z</time>
      </trkpt>
      <trkpt lat="44.29031" lon="4.16058">
        <ele>357.06</ele>
        <time>2015-06-23T09:20:02Z</time>
      </trkpt>
      <trkpt lat="44.2903" lon="4.16084">
        <ele>356.96</ele>
        <time>2015-06-23T09:20:20Z</time>
      </trkpt>
      <trkpt lat="44.2903" lon="4.1611">
        <ele>351.44</ele>
        <time>2015-06-23T09:20:40Z</time>
      </trkpt>
      <trkpt lat="44.29023" lon="4.16134">
        <ele>350.61</ele>
        <time>2015-06-23T09:20:58Z</time>
      </trkpt>
      <trkpt lat="44.29016" lon="4.16158">
        <ele>348.76</ele>
        <time>2015-06-23T09:21:14Z</time>
      </trkpt>
      <trkpt lat="44.29023" lon="4.16181">
        <ele>348.53</ele>
        <time>2015-06-23T09:21:31Z</time>
      </trkpt>
      <trkpt lat="44.29023" lon="4.16208">
        <ele>352.31</ele>
        <time>2015-06-23T09:21:46Z</time>
      </trkpt>
      <trkpt lat="44.29024" lon="4.16233">
        <ele>348.91</ele>
        <time>2015-06-23T09:22:06Z</time>
      </trkpt>
      <trkpt lat="44.29024" lon="4.16259">
        <ele>344.94</ele>
        <time>2015-06-23T09:22:29Z</time>
      </trkpt>
      <trkpt lat="44.29028" lon="4.16285">
        <ele>337.75</ele>
        <time>2015-06-23T09:22:55Z</time>
      </trkpt>
      <trkpt lat="44.29037" lon="4.16307">
        <ele>338.49</ele>
        <time>2015-06-23T09:23:13Z</time>
      </trkpt>
      <trkpt lat="44.29056" lon="4.16304">
        <ele>331.77</ele>
        <time>2015-06-23T09:23:33Z</time>
      </trkpt>
      <trkpt lat="44.2907" lon="4.16287">
        <ele>331.11</ele>
        <time>2015-06-23T09:23:53Z</time>
      </trkpt>
      <trkpt lat="44.2908" lon="4.16265">
        <ele>331.94</ele>
        <time>2015-06-23T09:24:10Z</time>
      </trkpt>
      <trkpt lat="44.2909" lon="4.16288">
        <ele>327.05</ele>
        <time>2015-06-23T09:25:18Z</time>
      </trkpt>
      <trkpt lat="44.2909" lon="4.16314">
        <ele>332.51</ele>
        <time>2015-06-23T09:25:36Z</time>
      </trkpt>
      <trkpt lat="44.29096" lon="4.16338">
        <ele>325.98</ele>
        <time>2015-06-23T09:26:07Z</time>
      </trkpt>
      <trkpt lat="44.29097" lon="4.16363">
        <ele>325.76</ele>
        <time>2015-06-23T09:26:34Z</time>
      </trkpt>
      <trkpt lat="44.29096" lon="4.16389">
        <ele>321.5</ele>
        <time>2015-06-23T09:26:58Z</time>
      </trkpt>
      <trkpt lat="44.29095" lon="4.16415">
        <ele>326.05</ele>
        <time>2015-06-23T09:27:19Z</time>
      </trkpt>
      <trkpt lat="44.2909" lon="4.16439">
        <ele>317.68</ele>
        <time>2015-06-23T09:27:41Z</time>
      </trkpt>
      <trkpt lat="44.29087" lon="4.16464">
        <ele>312.3</ele>
        <time>2015-06-23T09:28:03Z</time>
      </trkpt>
      <trkpt lat="44.29085" lon="4.1649">
        <ele>305.77</ele>
        <time>2015-06-23T09:28:23Z</time>
      </trkpt>
      <trkpt lat="44.29078" lon="4.16515">
        <ele>306.84</ele>
        <time>2015-06-23T09:29:01Z</time>
      </trkpt>
      <trkpt lat="44.29072" lon="4.1654">
        <ele>310.18</ele>
        <time>2015-06-23T09:29:12Z</time>
      </trkpt>
      <trkpt lat="44.29067" lon="4.16565">
        <ele>307.22</ele>
        <time>2015-06-23T09:29:34Z</time>
      </trkpt>
      <trkpt lat="44.29061" lon="4.16589">
        <ele>301.57</ele>
        <time>2015-06-23T09:29:54Z</time>
      </trkpt>
      <trkpt lat="44.29063" lon="4.16614">
        <ele>293.44</ele>
        <time>2015-06-23T09:31:23Z</time>
      </trkpt>
      <trkpt lat="44.29045" lon="4.1662">
        <ele>284.59</ele>
        <time>2015-06-23T09:31:44Z</time>
      </trkpt>
      <trkpt lat="44.29026" lon="4.16616">
        <ele>288.4</ele>
        <time>2015-06-23T09:32:06Z</time>
      </trkpt>
      <trkpt lat="44.29011" lon="4.16601">
        <ele>285.14</ele>
        <time>2015-06-23T09:32:23Z</time>
      </trkpt>
      <trkpt lat="44.28993" lon="4.16598">
        <ele>278.14</ele>
        <time>2015-06-23T09:32:44Z</time>
      </trkpt>
      <trkpt lat="44.28975" lon="4.16592">
        <ele>277.59</ele>
        <time>2015-06-23T09:33:01Z</time>
      </trkpt>
      <trkpt lat="44.28956" lon="4.16585">
        <ele>282.83</ele>
        <time>2015-06-23T09:33:14Z</time>
      </trkpt>
      <trkpt lat="44.28944" lon="4.16604">
        <ele>277.29</ele>
        <time>2015-06-23T09:33:36Z</time>
      </trkpt>
      <trkpt lat="44.28933" lon="4.16625">
        <ele>279.01</ele>
        <time>2015-06-23T09:33:56Z</time>
      </trkpt>
      <trkpt lat="44.28919" lon="4.16643">
        <ele>279.42</ele>
        <time>2015-06-23T09:34:13Z</time>
      </trkpt>
      <trkpt lat="44.28905" lon="4.1666">
        <ele>276.33</ele>
        <time>2015-06-23T09:34:33Z</time>
      </trkpt>
      <trkpt lat="44.28891" lon="4.16676">
        <ele>276.38</ele>
        <time>2015-06-23T09:34:52Z</time>
      </trkpt>
      <trkpt lat="44.28879" lon="4.16696">
        <ele>278.69</ele>
        <time>2015-06-23T09:35:08Z</time>
      </trkpt>
      <trkpt lat="44.28868" lon="4.16716">
        <ele>280.42</ele>
        <time>2015-06-23T09:35:23Z</time>
      </trkpt>
      <trkpt lat="44.28856" lon="4.16735">
        <ele>278.66</ele>
        <time>2015-06-23T09:35:38Z</time>
      </trkpt>
      <trkpt lat="44.2884" lon="4.16746">
        <ele>280.92</ele>
        <time>2015-06-23T09:35:53Z</time>
      </trkpt>
      <trkpt lat="44.28825" lon="4.16761">
        <ele>276.47</ele>
        <time>2015-06-23T09:36:15Z</time>
      </trkpt>
      <trkpt lat="44.28813" lon="4.16781">
        <ele>275.57</ele>
        <time>2015-06-23T09:36:32Z</time>
      </trkpt>
      <trkpt lat="44.28801" lon="4.16801">
        <ele>279.26</ele>
        <time>2015-06-23T09:36:47Z</time>
      </trkpt>
      <trkpt lat="44.28791" lon="4.16822">
        <ele>281.68</ele>
        <time>2015-06-23T09:37:01Z</time>
      </trkpt>
      <trkpt lat="44.28784" lon="4.16846">
        <ele>281</ele>
        <time>2015-06-23T09:37:16Z</time>
      </trkpt>
      <trkpt lat="44.28776" lon="4.1687">
        <ele>280.07</ele>
        <time>2015-06-23T09:37:32Z</time>
      </trkpt>
      <trkpt lat="44.28774" lon="4.16896">
        <ele>283.06</ele>
        <time>2015-06-23T09:37:45Z</time>
      </trkpt>
      <trkpt lat="44.28778" lon="4.16921">
        <ele>286.23</ele>
        <time>2015-06-23T09:38:00Z</time>
      </trkpt>
      <trkpt lat="44.28786" lon="4.16944">
        <ele>289.96</ele>
        <time>2015-06-23T09:38:15Z</time>
      </trkpt>
      <trkpt lat="44.28795" lon="4.16967">
        <ele>294.53</ele>
        <time>2015-06-23T09:38:32Z</time>
      </trkpt>
      <trkpt lat="44.28806" lon="4.16989">
        <ele>295.05</ele>
        <time>2015-06-23T09:38:45Z</time>
      </trkpt>
      <trkpt lat="44.28811" lon="4.17013">
        <ele>297.56</ele>
        <time>2015-06-23T09:39:03Z</time>
      </trkpt>
      <trkpt lat="44.28819" lon="4.17037">
        <ele>296.02</ele>
        <time>2015-06-23T09:39:31Z</time>
      </trkpt>
      <trkpt lat="44.28824" lon="4.17063">
        <ele>289.6</ele>
        <time>2015-06-23T09:39:47Z</time>
      </trkpt>
      <trkpt lat="44.28822" lon="4.17088">
        <ele>295.1</ele>
        <time>2015-06-23T09:40:01Z</time>
      </trkpt>
      <trkpt lat="44.28809" lon="4.17107">
        <ele>295.97</ele>
        <time>2015-06-23T09:40:17Z</time>
      </trkpt>
      <trkpt lat="44.28791" lon="4.17109">
        <ele>294.17</ele>
        <time>2015-06-23T09:40:31Z</time>
      </trkpt>
      <trkpt lat="44.28772" lon="4.17101">
        <ele>293.27</ele>
        <time>2015-06-23T09:41:14Z</time>
      </trkpt>
      <trkpt lat="44.28754" lon="4.17099">
        <ele>288.15</ele>
        <time>2015-06-23T09:41:25Z</time>
      </trkpt>
      <trkpt lat="44.28736" lon="4.17098">
        <ele>285.47</ele>
        <time>2015-06-23T09:41:38Z</time>
      </trkpt>
      <trkpt lat="44.28717" lon="4.17098">
        <ele>287.54</ele>
        <time>2015-06-23T09:41:53Z</time>
      </trkpt>
      <trkpt lat="44.28699" lon="4.17107">
        <ele>286.67</ele>
        <time>2015-06-23T09:42:09Z</time>
      </trkpt>
      <trkpt lat="44.28682" lon="4.17117">
        <ele>287.7</ele>
        <time>2015-06-23T09:42:23Z</time>
      </trkpt>
      <trkpt lat="44.28665" lon="4.17129">
        <ele>284.08</ele>
        <time>2015-06-23T09:42:36Z</time>
      </trkpt>
      <trkpt lat="44.28651" lon="4.17145">
        <ele>285.68</ele>
        <time>2015-06-23T09:42:51Z</time>
      </trkpt>
      <trkpt lat="44.28634" lon="4.17156">
        <ele>286.28</ele>
        <time>2015-06-23T09:43:05Z</time>
      </trkpt>
      <trkpt lat="44.28618" lon="4.17165">
        <ele>287.06</ele>
        <time>2015-06-23T09:43:20Z</time>
      </trkpt>
      <trkpt lat="44.28601" lon="4.17177">
        <ele>286.63</ele>
        <time>2015-06-23T09:43:35Z</time>
      </trkpt>
      <trkpt lat="44.28583" lon="4.17182">
        <ele>287.11</ele>
        <time>2015-06-23T09:43:49Z</time>
      </trkpt>
      <trkpt lat="44.28564" lon="4.17182">
        <ele>283.07</ele>
        <time>2015-06-23T09:44:05Z</time>
      </trkpt>
      <trkpt lat="44.28545" lon="4.17181">
        <ele>280.84</ele>
        <time>2015-06-23T09:44:23Z</time>
      </trkpt>
      <trkpt lat="44.28527" lon="4.17177">
        <ele>278.94</ele>
        <time>2015-06-23T09:44:38Z</time>
      </trkpt>
      <trkpt lat="44.28508" lon="4.17173">
        <ele>279.19</ele>
        <time>2015-06-23T09:44:50Z</time>
      </trkpt>
      <trkpt lat="44.2849" lon="4.17179">
        <ele>266.6</ele>
        <time>2015-06-23T09:45:24Z</time>
      </trkpt>
      <trkpt lat="44.28474" lon="4.17192">
        <ele>265.57</ele>
        <time>2015-06-23T09:45:41Z</time>
      </trkpt>
      <trkpt lat="44.28461" lon="4.17212">
        <ele>267.62</ele>
        <time>2015-06-23T09:45:54Z</time>
      </trkpt>
      <trkpt lat="44.28454" lon="4.17237">
        <ele>267.96</ele>
        <time>2015-06-23T09:46:11Z</time>
      </trkpt>
      <trkpt lat="44.28448" lon="4.17262">
        <ele>271.05</ele>
        <time>2015-06-23T09:46:27Z</time>
      </trkpt>
      <trkpt lat="44.28442" lon="4.17287">
        <ele>271.25</ele>
        <time>2015-06-23T09:46:41Z</time>
      </trkpt>
      <trkpt lat="44.28438" lon="4.17312">
        <ele>273.51</ele>
        <time>2015-06-23T09:46:54Z</time>
      </trkpt>
      <trkpt lat="44.28425" lon="4.1733">
        <ele>270.66</ele>
        <time>2015-06-23T09:47:13Z</time>
      </trkpt>
      <trkpt lat="44.28411" lon="4.17349">
        <ele>267.48</ele>
        <time>2015-06-23T09:47:28Z</time>
      </trkpt>
      <trkpt lat="44.28396" lon="4.17365">
        <ele>260.53</ele>
        <time>2015-06-23T09:47:42Z</time>
      </trkpt>
      <trkpt lat="44.28381" lon="4.17381">
        <ele>260.47</ele>
        <time>2015-06-23T09:47:58Z</time>
      </trkpt>
      <trkpt lat="44.28366" lon="4.17395">
        <ele>255.43</ele>
        <time>2015-06-23T09:48:13Z</time>
      </trkpt>
      <trkpt lat="44.28348" lon="4.174">
        <ele>259.28</ele>
        <time>2015-06-23T09:48:27Z</time>
      </trkpt>
      <trkpt lat="44.2833" lon="4.1739">
        <ele>255.18</ele>
        <time>2015-06-23T09:48:44Z</time>
      </trkpt>
      <trkpt lat="44.28313" lon="4.17381">
        <ele>251.6</ele>
        <time>2015-06-23T09:49:02Z</time>
      </trkpt>
      <trkpt lat="44.28298" lon="4.17365">
        <ele>245.99</ele>
        <time>2015-06-23T09:49:18Z</time>
      </trkpt>
      <trkpt lat="44.28281" lon="4.17356">
        <ele>254.92</ele>
        <time>2015-06-23T09:49:43Z</time>
      </trkpt>
      <trkpt lat="44.28263" lon="4.17348">
        <ele>251.75</ele>
        <time>2015-06-23T09:50:12Z</time>
      </trkpt>
      <trkpt lat="44.28246" lon="4.17337">
        <ele>246.85</ele>
        <time>2015-06-23T09:50:25Z</time>
      </trkpt>
      <trkpt lat="44.28228" lon="4.17327">
        <ele>253.93</ele>
        <time>2015-06-23T09:50:37Z</time>
      </trkpt>
      <trkpt lat="44.28211" lon="4.17314">
        <ele>260.42</ele>
        <time>2015-06-23T09:50:47Z</time>
      </trkpt>
      <trkpt lat="44.28189" lon="4.17303">
        <ele>259.6</ele>
        <time>2015-06-23T09:51:11Z</time>
      </trkpt>
      <trkpt lat="44.28171" lon="4.17296">
        <ele>263.79</ele>
        <time>2015-06-23T09:51:23Z</time>
      </trkpt>
      <trkpt lat="44.28156" lon="4.17281">
        <ele>254.14</ele>
        <time>2015-06-23T09:51:38Z</time>
      </trkpt>
      <trkpt lat="44.28139" lon="4.1727">
        <ele>248.19</ele>
        <time>2015-06-23T09:51:55Z</time>
      </trkpt>
      <trkpt lat="44.28121" lon="4.17268">
        <ele>255.3</ele>
        <time>2015-06-23T09:52:10Z</time>
      </trkpt>
      <trkpt lat="44.28108" lon="4.17249">
        <ele>254.86</ele>
        <time>2015-06-23T09:52:25Z</time>
      </trkpt>
      <trkpt lat="44.28091" lon="4.17238">
        <ele>254.23</ele>
        <time>2015-06-23T09:52:37Z</time>
      </trkpt>
      <trkpt lat="44.28074" lon="4.17245">
        <ele>250.45</ele>
        <time>2015-06-23T09:53:07Z</time>
      </trkpt>
      <trkpt lat="44.28056" lon="4.17243">
        <ele>250.22</ele>
        <time>2015-06-23T09:53:20Z</time>
      </trkpt>
      <trkpt lat="44.28037" lon="4.17239">
        <ele>249.32</ele>
        <time>2015-06-23T09:53:34Z</time>
      </trkpt>
      <trkpt lat="44.28018" lon="4.17235">
        <ele>246.25</ele>
        <time>2015-06-23T09:53:49Z</time>
      </trkpt>
      <trkpt lat="44.28" lon="4.17232">
        <ele>256.01</ele>
        <time>2015-06-23T09:54:01Z</time>
      </trkpt>
      <trkpt lat="44.27981" lon="4.1723">
        <ele>253.18</ele>
        <time>2015-06-23T09:54:17Z</time>
      </trkpt>
      <trkpt lat="44.27962" lon="4.17233">
        <ele>246.99</ele>
        <time>2015-06-23T09:54:33Z</time>
      </trkpt>
      <trkpt lat="44.27944" lon="4.17228">
        <ele>246.65</ele>
        <time>2015-06-23T09:54:47Z</time>
      </trkpt>
      <trkpt lat="44.27925" lon="4.17221">
        <ele>247.7</ele>
        <time>2015-06-23T09:55:01Z</time>
      </trkpt>
      <trkpt lat="44.27909" lon="4.1721">
        <ele>242</ele>
        <time>2015-06-23T09:55:17Z</time>
      </trkpt>
      <trkpt lat="44.27893" lon="4.17195">
        <ele>232.86</ele>
        <time>2015-06-23T09:55:41Z</time>
      </trkpt>
      <trkpt lat="44.27876" lon="4.17205">
        <ele>241.42</ele>
        <time>2015-06-23T09:55:52Z</time>
      </trkpt>
      <trkpt lat="44.27859" lon="4.17213">
        <ele>247.06</ele>
        <time>2015-06-23T09:56:05Z</time>
      </trkpt>
      <trkpt lat="44.2784" lon="4.17215">
        <ele>233.74</ele>
        <time>2015-06-23T09:56:46Z</time>
      </trkpt>
      <trkpt lat="44.27821" lon="4.17212">
        <ele>224.94</ele>
        <time>2015-06-23T09:57:01Z</time>
      </trkpt>
      <trkpt lat="44.27803" lon="4.17205">
        <ele>225.24</ele>
        <time>2015-06-23T09:57:17Z</time>
      </trkpt>
      <trkpt lat="44.27788" lon="4.17189">
        <ele>230.92</ele>
        <time>2015-06-23T09:57:43Z</time>
      </trkpt>
      <trkpt lat="44.27773" lon="4.17174">
        <ele>237.93</ele>
        <time>2015-06-23T10:01:37Z</time>
      </trkpt>
      <trkpt lat="44.27757" lon="4.17161">
        <ele>235.01</ele>
        <time>2015-06-23T10:01:58Z</time>
      </trkpt>
      <trkpt lat="44.27742" lon="4.17175">
        <ele>225.86</ele>
        <time>2015-06-23T10:02:28Z</time>
      </trkpt>
      <trkpt lat="44.27725" lon="4.17184">
        <ele>228.07</ele>
        <time>2015-06-23T10:03:05Z</time>
      </trkpt>
      <trkpt lat="44.27707" lon="4.17191">
        <ele>220.77</ele>
        <time>2015-06-23T10:03:28Z</time>
      </trkpt>
      <trkpt lat="44.27689" lon="4.1719">
        <ele>216.44</ele>
        <time>2015-06-23T10:04:44Z</time>
      </trkpt>
      <trkpt lat="44.27672" lon="4.1718">
        <ele>220.22</ele>
        <time>2015-06-23T10:05:03Z</time>
      </trkpt>
      <trkpt lat="44.27657" lon="4.17166">
        <ele>213.63</ele>
        <time>2015-06-23T10:05:35Z</time>
      </trkpt>
      <trkpt lat="44.2764" lon="4.17155">
        <ele>215.63</ele>
        <time>2015-06-23T10:05:50Z</time>
      </trkpt>
      <trkpt lat="44.27626" lon="4.17138">
        <ele>212.48</ele>
        <time>2015-06-23T10:06:04Z</time>
      </trkpt>
      <trkpt lat="44.27613" lon="4.1712">
        <ele>208.2</ele>
        <time>2015-06-23T10:06:22Z</time>
      </trkpt>
      <trkpt lat="44.27597" lon="4.17106">
        <ele>208.13</ele>
        <time>2015-06-23T10:06:35Z</time>
      </trkpt>
      <trkpt lat="44.27583" lon="4.17088">
        <ele>209.45</ele>
        <time>2015-06-23T10:06:52Z</time>
      </trkpt>
      <trkpt lat="44.27573" lon="4.17067">
        <ele>213.31</ele>
        <time>2015-06-23T10:07:09Z</time>
      </trkpt>
      <trkpt lat="44.27564" lon="4.17044">
        <ele>217.99</ele>
        <time>2015-06-23T10:07:33Z</time>
      </trkpt>
      <trkpt lat="44.27545" lon="4.17038">
        <ele>221.91</ele>
        <time>2015-06-23T10:07:42Z</time>
      </trkpt>
      <trkpt lat="44.27542" lon="4.17063">
        <ele>221.22</ele>
        <time>2015-06-23T10:08:00Z</time>
      </trkpt>
      <trkpt lat="44.27536" lon="4.17089">
        <ele>212.69</ele>
        <time>2015-06-23T10:08:22Z</time>
      </trkpt>
      <trkpt lat="44.27528" lon="4.17112">
        <ele>205.28</ele>
        <time>2015-06-23T10:08:43Z</time>
      </trkpt>
      <trkpt lat="44.27521" lon="4.17136">
        <ele>203.57</ele>
        <time>2015-06-23T10:09:03Z</time>
      </trkpt>
      <trkpt lat="44.27511" lon="4.17158">
        <ele>188.46</ele>
        <time>2015-06-23T10:09:25Z</time>
      </trkpt>
      <trkpt lat="44.27495" lon="4.1717">
        <ele>181.6</ele>
        <time>2015-06-23T10:09:46Z</time>
      </trkpt>
      <trkpt lat="44.27478" lon="4.17181">
        <ele>175.42</ele>
        <time>2015-06-23T10:10:04Z</time>
      </trkpt>
      <trkpt lat="44.27474" lon="4.17205">
        <ele>174.67</ele>
        <time>2015-06-23T10:10:28Z</time>
      </trkpt>
      <trkpt lat="44.27475" lon="4.17232">
        <ele>170.09</ele>
        <time>2015-06-23T10:10:47Z</time>
      </trkpt>
      <trkpt lat="44.27468" lon="4.17257">
        <ele>170.94</ele>
        <time>2015-06-23T10:11:02Z</time>
      </trkpt>
      <trkpt lat="44.27455" lon="4.17274">
        <ele>163.36</ele>
        <time>2015-06-23T10:11:49Z</time>
      </trkpt>
      <trkpt lat="44.27436" lon="4.17271">
        <ele>173.88</ele>
        <time>2015-06-23T10:12:15Z</time>
      </trkpt>
      <trkpt lat="44.27418" lon="4.17268">
        <ele>170.28</ele>
        <time>2015-06-23T10:12:32Z</time>
      </trkpt>
      <trkpt lat="44.27399" lon="4.17265">
        <ele>169.29</ele>
        <time>2015-06-23T10:12:50Z</time>
      </trkpt>
      <trkpt lat="44.27382" lon="4.17255">
        <ele>169.26</ele>
        <time>2015-06-23T10:13:08Z</time>
      </trkpt>
      <trkpt lat="44.27367" lon="4.17241">
        <ele>173.29</ele>
        <time>2015-06-23T10:13:26Z</time>
      </trkpt>
      <trkpt lat="44.27349" lon="4.17234">
        <ele>175.69</ele>
        <time>2015-06-23T10:13:56Z</time>
      </trkpt>
      <trkpt lat="44.27329" lon="4.17235">
        <ele>172.56</ele>
        <time>2015-06-23T10:14:17Z</time>
      </trkpt>
      <trkpt lat="44.27311" lon="4.1723">
        <ele>177.8</ele>
        <time>2015-06-23T10:14:42Z</time>
      </trkpt>
      <trkpt lat="44.27299" lon="4.17211">
        <ele>173.44</ele>
        <time>2015-06-23T10:16:19Z</time>
      </trkpt>
      <trkpt lat="44.27292" lon="4.17187">
        <ele>167.41</ele>
        <time>2015-06-23T10:16:33Z</time>
      </trkpt>
      <trkpt lat="44.2728" lon="4.17167">
        <ele>166.39</ele>
        <time>2015-06-23T10:16:48Z</time>
      </trkpt>
      <trkpt lat="44.27268" lon="4.17147">
        <ele>170.45</ele>
        <time>2015-06-23T10:17:03Z</time>
      </trkpt>
      <trkpt lat="44.27254" lon="4.1713">
        <ele>168.96</ele>
        <time>2015-06-23T10:17:16Z</time>
      </trkpt>
      <trkpt lat="44.27243" lon="4.17109">
        <ele>166.23</ele>
        <time>2015-06-23T10:17:32Z</time>
      </trkpt>
      <trkpt lat="44.27234" lon="4.17085">
        <ele>159.45</ele>
        <time>2015-06-23T10:17:50Z</time>
      </trkpt>
      <trkpt lat="44.27224" lon="4.17064">
        <ele>158.31</ele>
        <time>2015-06-23T10:18:03Z</time>
      </trkpt>
      <trkpt lat="44.27216" lon="4.1704">
        <ele>155.29</ele>
        <time>2015-06-23T10:18:21Z</time>
      </trkpt>
      <trkpt lat="44.27204" lon="4.17021">
        <ele>155.25</ele>
        <time>2015-06-23T10:18:49Z</time>
      </trkpt>
      <trkpt lat="44.27193" lon="4.17">
        <ele>157.68</ele>
        <time>2015-06-23T10:19:12Z</time>
      </trkpt>
      <trkpt lat="44.27181" lon="4.1698">
        <ele>158.44</ele>
        <time>2015-06-23T10:19:25Z</time>
      </trkpt>
      <trkpt lat="44.27163" lon="4.16977">
        <ele>153.36</ele>
        <time>2015-06-23T10:19:39Z</time>
      </trkpt>
      <trkpt lat="44.27147" lon="4.16988">
        <ele>147.38</ele>
        <time>2015-06-23T10:19:54Z</time>
      </trkpt>
      <trkpt lat="44.27136" lon="4.1701">
        <ele>147.37</ele>
        <time>2015-06-23T10:20:11Z</time>
      </trkpt>
      <trkpt lat="44.27119" lon="4.17">
        <ele>144.06</ele>
        <time>2015-06-23T10:20:40Z</time>
      </trkpt>
      <trkpt lat="44.27108" lon="4.1698">
        <ele>142.67</ele>
        <time>2015-06-23T10:20:57Z</time>
      </trkpt>
      <trkpt lat="44.27094" lon="4.16962">
        <ele>145.15</ele>
        <time>2015-06-23T10:21:15Z</time>
      </trkpt>
      <trkpt lat="44.27076" lon="4.16959">
        <ele>139.67</ele>
        <time>2015-06-23T10:21:38Z</time>
      </trkpt>
      <trkpt lat="44.27059" lon="4.16968">
        <ele>138.29</ele>
        <time>2015-06-23T10:21:58Z</time>
      </trkpt>
      <trkpt lat="44.27044" lon="4.16984">
        <ele>138.66</ele>
        <time>2015-06-23T10:22:13Z</time>
      </trkpt>
    </trkseg>
  </trk>
</gpx>